Latest Weather Observations for Hunters Hill

IDV60801

Issued at 8:02 pm EST Friday 4 September 2015 (issued every 30 minutes, with the page automatically refreshed every 10 minutes)

About weather observations | Map of weather stations | Latest weather observations for VIC | Other Formats
Station Details ID: 082139 Name: HUNTERS HILL Lat: -36.21 Lon: 147.54 Height: 981.0 m
Data from the previous 72 hours. | See also: Recent months at Hunters Hill
Date/Time
EST
Temp
°C
App
Temp
°C
Dew
Point
Rel
Hum
%
Delta-T
°C
Wind Press
QNH
hPa
Press
MSL
hPa
Rain
since 9 am
mm
Dir
 
Spd
km/h
Gust
km/h
Spd
kts
Gust
kts
04/08:00pm 6.4 3.8 6.3 99 0.0 W 9 13 5 7 - - 0.0
04/07:30pm 6.5 3.9 6.1 97 0.2 W 9 15 5 8 - - 0.0
04/07:00pm 6.7 4.1 6.3 97 0.2 W 9 13 5 7 - - 0.0
04/06:30pm 7.2 4.6 6.3 94 0.4 W 9 15 5 8 - - 0.0
04/06:00pm 7.4 4.8 6.0 91 0.7 W 9 15 5 8 - - 0.0
04/05:30pm 8.1 5.8 5.6 84 1.2 W 7 13 4 7 - - 0.0
04/05:00pm 9.2 6.6 4.4 72 2.3 W 7 11 4 6 - - 0.0
04/04:30pm 9.5 6.5 4.1 69 2.5 WNW 9 17 5 9 - - 0.0
04/04:00pm 10.5 8.2 4.9 68 2.7 WNW 6 11 3 6 - - 0.0
04/03:30pm 10.1 7.3 5.3 72 2.3 W 9 19 5 10 - - 0.0
04/03:00pm 11.0 8.1 4.9 66 2.9 W 9 17 5 9 - - 0.0
04/02:30pm 11.7 9.2 4.7 62 3.4 W 7 15 4 8 - - 0.0
04/02:00pm 11.2 8.3 4.4 63 3.2 NW 9 17 5 9 - - 0.0
04/01:30pm 11.7 9.3 5.3 65 3.1 NW 7 15 4 8 - - 0.0
04/01:00pm 11.0 8.4 4.0 62 3.3 W 7 13 4 7 - - 0.0
04/12:30pm 11.2 8.2 4.2 62 3.3 NW 9 17 5 9 - - 0.0
04/12:00pm 10.1 7.3 3.2 62 3.2 NW 7 17 4 9 - - 0.0
04/11:30am 11.1 8.7 5.2 67 2.9 NW 7 17 4 9 - - 0.0
04/11:00am 10.5 8.3 5.1 69 2.6 S 6 9 3 5 - - 0.0
04/10:30am 9.6 7.7 4.8 72 2.3 S 4 7 2 4 - - 0.0
04/10:00am 8.7 6.8 4.9 77 1.8 S 4 6 2 3 - - 0.0
04/09:30am 9.6 8.1 5.2 74 2.1 S 2 6 1 3 - - 0.0
04/09:00am 8.5 6.9 4.3 75 2.0 S 2 7 1 4 - - 1.0
04/08:30am 7.9 5.9 4.3 78 1.7 S 4 7 2 4 - - 1.0
04/08:00am 6.4 4.5 5.0 91 0.7 S 4 6 2 3 - - 1.0
04/07:30am 4.5 2.9 4.4 99 0.0 S 2 6 1 3 - - 1.0
04/07:00am 4.0 2.3 3.9 99 0.0 S 2 4 1 2 - - 1.0
04/06:30am 3.8 1.7 3.7 99 0.0 S 4 6 2 3 - - 1.0
04/06:00am 3.9 1.4 3.8 99 0.0 S 6 6 3 3 - - 1.0
04/05:30am 4.0 2.2 3.7 98 0.1 S 2 4 1 2 - - 1.0
04/05:00am 4.1 1.9 3.2 94 0.4 S 4 6 2 3 - - 1.0
04/04:30am 4.9 2.3 3.2 89 0.7 S 6 9 3 5 - - 1.0
04/04:00am 4.8 2.6 3.6 92 0.5 S 4 9 2 5 - - 1.0
04/03:30am 4.3 1.7 3.4 94 0.4 S 6 9 3 5 - - 1.0
04/03:00am 4.7 2.0 3.5 92 0.5 SSE 7 13 4 7 - - 1.0
04/02:30am 4.7 2.1 3.4 91 0.6 SSW 6 9 3 5 - - 1.0
04/02:00am 5.0 2.4 3.3 89 0.7 SSW 6 11 3 6 - - 1.0
04/01:30am 4.8 2.2 3.3 90 0.7 SSW 6 13 3 7 - - 1.0
04/01:00am 4.9 2.1 3.1 88 0.8 S 7 20 4 11 - - 1.0
04/12:30am 5.3 2.5 3.2 86 0.9 S 7 22 4 12 - - 1.0
04/12:00am 5.2 2.3 2.7 84 1.1 SSE 7 24 4 13 - - 1.0
 
Date/Time
EST
Temp
°C
App
Temp
°C
Dew
Point
Rel
Hum
%
Delta-T
°C
Wind Press
QNH
hPa
Press
MSL
hPa
Rain
since 9 am
mm
Dir
 
Spd
km/h
Gust
km/h
Spd
kts
Gust
kts
03/11:30pm 5.6 2.0 2.8 82 1.2 S 11 24 6 13 - - 1.0
03/11:00pm 5.1 1.9 3.1 87 0.9 S 9 22 5 12 - - 1.0
03/10:30pm 4.9 1.8 3.6 91 0.6 SSE 9 19 5 10 - - 1.0
03/10:00pm 4.7 2.2 4.0 95 0.3 SSW 6 11 3 6 - - 1.0
03/09:30pm 5.0 2.6 4.3 95 0.3 SW 6 9 3 5 - - 1.0
03/09:00pm 5.5 2.9 4.0 90 0.7 S 7 17 4 9 - - 1.0
03/08:30pm 5.9 3.3 4.2 89 0.8 S 7 17 4 9 - - 1.0
03/08:00pm 5.8 3.3 3.8 87 0.9 S 6 17 3 9 - - 1.0
03/07:30pm 5.8 3.6 3.5 85 1.0 E 4 7 2 4 - - 1.0
03/07:00pm 5.9 3.3 3.4 84 1.1 S 6 19 3 10 - - 1.0
03/06:30pm 6.1 3.3 3.3 82 1.2 SE 7 17 4 9 - - 1.0
03/06:00pm 6.6 3.8 3.0 78 1.6 S 7 19 4 10 - - 1.0
03/05:30pm 7.2 4.1 3.4 77 1.7 S 9 20 5 11 - - 1.0
03/05:00pm 7.8 3.8 2.7 70 2.3 SSE 13 33 7 18 - - 1.0
03/04:30pm 8.4 5.1 2.2 65 2.7 S 9 24 5 13 - - 0.8
03/04:00pm 8.7 5.5 2.9 67 2.6 S 9 22 5 12 - - 0.8
03/03:30pm 8.6 4.8 3.8 72 2.2 S 13 32 7 17 - - 0.8
03/03:00pm 9.6 7.4 5.2 74 2.1 S 6 17 3 9 - - 0.8
03/02:30pm 10.2 8.0 6.0 75 2.1 SSW 7 19 4 10 - - 0.8
03/02:00pm 9.4 6.8 6.3 81 1.5 SSW 9 24 5 13 - - 0.8
03/01:30pm 9.2 7.3 6.8 85 1.2 SE 6 13 3 7 - - 0.8
03/01:00pm 9.0 6.2 5.2 77 1.8 SSW 9 24 5 13 - - 0.8
03/12:30pm 7.8 4.8 5.9 88 0.9 SSW 11 30 6 16 - - 0.8
03/12:00pm 6.6 3.1 5.4 92 0.6 S 13 30 7 16 - - 0.8
03/11:30am 6.3 3.7 6.2 99 0.0 S 9 24 5 13 - - 0.8
03/11:00am 5.9 3.2 5.8 99 0.0 S 9 28 5 15 - - 0.8
03/10:30am 4.8 1.9 4.8 100 0.0 S 9 22 5 12 - - 0.8
03/10:00am 4.3 0.6 4.2 99 0.0 S 13 26 7 14 - - 0.8
03/09:30am 4.3 0.6 4.2 99 0.0 S 13 33 7 18 - - 0.4
03/09:00am 4.0 0.6 3.9 99 0.0 SSE 11 28 6 15 - - 18.6
03/08:30am 4.7 2.4 4.7 100 0.0 SSE 6 13 3 7 - - 17.8
03/08:00am 4.9 2.6 4.9 100 0.0 SE 6 11 3 6 - - 17.2
03/07:30am 4.8 2.9 4.8 100 0.0 SSE 4 7 2 4 - - 16.8
03/07:00am 4.6 2.1 4.6 100 0.0 SE 7 15 4 8 - - 16.6
03/06:30am 4.8 2.9 4.8 100 0.0 SSE 4 9 2 5 - - 16.2
03/06:00am 5.1 3.2 5.1 100 0.0 SSE 4 7 2 4 - - 15.0
03/05:30am 5.1 3.2 5.1 100 0.0 SSE 4 11 2 6 - - 13.8
03/05:00am 5.1 2.9 5.1 100 0.0 SE 6 9 3 5 - - 13.2
03/04:30am 5.1 2.9 5.1 100 0.0 SE 6 11 3 6 - - 12.8
03/04:00am 5.1 2.9 5.1 100 0.0 SE 6 9 3 5 - - 12.2
03/03:30am 5.0 2.7 5.0 100 0.0 SE 6 9 3 5 - - 11.4
03/03:00am 5.0 2.7 5.0 100 0.0 ESE 6 9 3 5 - - 11.2
03/02:30am 5.0 2.7 5.0 100 0.0 ESE 6 9 3 5 - - 10.8
03/02:00am 5.0 2.7 5.0 100 0.0 ESE 6 9 3 5 - - 10.6
03/01:30am 5.2 2.8 5.2 100 0.0 E 7 9 4 5 - - 10.4
03/01:00am 5.3 2.9 5.3 100 0.0 E 7 11 4 6 - - 10.2
03/12:30am 5.5 3.3 5.5 100 0.0 E 6 9 3 5 - - 9.6
03/12:00am 5.5 3.7 5.5 100 0.0 E 4 6 2 3 - - 9.4
 
Date/Time
EST
Temp
°C
App
Temp
°C
Dew
Point
Rel
Hum
%
Delta-T
°C
Wind Press
QNH
hPa
Press
MSL
hPa
Rain
since 9 am
mm
Dir
 
Spd
km/h
Gust
km/h
Spd
kts
Gust
kts
02/11:30pm 5.7 4.0 5.7 100 0.0 E 4 6 2 3 - - 8.4
02/11:00pm 5.8 4.1 5.8 100 0.0 E 4 6 2 3 - - 6.0
02/10:30pm 6.0 4.3 6.0 100 0.0 E 4 7 2 4 - - 4.0
02/10:00pm 6.3 5.4 6.2 99 0.0 CALM 0 0 0 0 - - 1.4
02/09:30pm 6.6 5.3 6.0 96 0.3 E 2 4 1 2 - - 0.6
02/09:00pm 6.6 4.9 5.7 94 0.4 E 4 9 2 5 - - 0.6
02/08:30pm 7.3 5.0 5.0 85 1.1 NNE 6 9 3 5 - - 0.2
02/08:00pm 6.8 4.3 4.8 87 0.9 NNE 7 13 4 7 - - 0.2
02/07:30pm 7.8 5.8 4.6 80 1.5 N 4 7 2 4 - - 0.0
02/07:00pm 7.8 6.2 4.7 81 1.4 N 2 4 1 2 - - 0.0
02/06:30pm 7.8 6.2 4.7 81 1.4 N 2 6 1 3 - - 0.0
02/06:00pm 8.1 6.0 3.8 74 2.0 N 4 6 2 3 - - 0.0
02/05:30pm 8.3 6.3 4.3 76 1.9 N 4 6 2 3 - - 0.0
02/05:00pm 8.8 7.6 4.6 75 2.0 CALM 0 0 0 0 - - 0.0
02/04:30pm 9.9 8.6 4.1 67 2.7 CALM 0 2 0 1 - - 0.0
02/04:00pm 10.9 8.8 3.9 62 3.3 N 4 6 2 3 - - 0.0
02/03:30pm 11.2 8.4 2.2 54 4.1 N 6 9 3 5 - - 0.0
02/03:00pm 11.8 9.0 2.3 52 4.3 N 6 19 3 10 - - 0.0
02/02:30pm 11.5 8.3 0.6 47 4.8 N 7 15 4 8 - - 0.0
02/02:00pm 12.0 9.0 0.5 45 5.1 N 6 13 3 7 - - 0.0
02/01:30pm 12.3 10.3 4.5 59 3.8 NNE 4 6 2 3 - - 0.0
02/01:00pm 11.4 9.5 4.8 64 3.2 NNE 4 9 2 5 - - 0.0
02/12:30pm 10.4 8.3 3.9 64 3.0 NNE 4 9 2 5 - - 0.0
02/12:00pm 11.2 9.4 5.5 68 2.8 NNE 4 6 2 3 - - 0.0
02/11:30am 9.4 7.3 3.8 68 2.6 ENE 4 11 2 6 - - 0.0
02/11:00am 9.5 7.5 4.3 70 2.4 NNE 4 13 2 7 - - 0.0
02/10:30am 7.6 5.6 4.2 79 1.6 N 4 9 2 5 - - 0.0
02/10:00am 7.3 4.8 3.9 79 1.6 N 6 13 3 7 - - 0.0
02/09:30am 5.7 3.7 4.2 90 0.7 W 4 7 2 4 - - 0.0
02/09:00am 4.4 2.8 4.3 99 0.0 W 2 7 1 4 - - 0.0
02/08:30am 3.7 1.6 3.7 100 0.0 W 4 7 2 4 - - 0.0
02/08:00am 2.6 -0.1 2.6 100 0.0 W 6 7 3 4 - - 0.0
02/07:30am 1.9 -0.5 1.9 100 0.0 W 4 6 2 3 - - 0.0
02/07:00am 1.4 -1.1 1.4 100 0.0 W 4 6 2 3 - - 0.0
02/06:30am 1.4 -1.1 1.4 100 0.0 W 4 6 2 3 - - 0.0
02/06:00am 1.7 -0.4 1.7 100 0.0 W 2 6 1 3 - - 0.0
02/05:30am 1.4 -0.7 1.4 100 0.0 W 2 4 1 2 - - 0.0
02/05:00am 1.3 -1.2 1.3 100 0.0 W 4 6 2 3 - - 0.0
02/04:30am 1.6 -0.9 1.6 100 0.0 W 4 6 2 3 - - 0.0
02/04:00am 1.8 -0.3 1.8 100 0.0 W 2 4 1 2 - - 0.0
02/03:30am 2.1 -0.3 2.0 99 0.0 W 4 4 2 2 - - 0.0
02/03:00am 2.1 0.0 2.0 99 0.0 W 2 7 1 4 - - 0.0
02/02:30am 2.2 0.2 2.1 99 0.0 W 2 4 1 2 - - 0.0
02/02:00am 2.5 0.1 2.4 99 0.0 W 4 6 2 3 - - 0.0
02/01:30am 2.6 0.3 2.5 99 0.0 W 4 6 2 3 - - 0.0
02/01:00am 2.7 1.1 2.6 99 0.0 CALM 0 0 0 0 - - 0.0
02/12:30am 3.3 1.4 2.6 95 0.3 W 2 4 1 2 - - 0.0
02/12:00am 3.5 1.3 3.2 98 0.1 W 4 6 2 3 - - 0.0
 
Date/Time
EST
Temp
°C
App
Temp
°C
Dew
Point
Rel
Hum
%
Delta-T
°C
Wind Press
QNH
hPa
Press
MSL
hPa
Rain
since 9 am
mm
Dir
 
Spd
km/h
Gust
km/h
Spd
kts
Gust
kts
01/11:30pm 3.5 0.9 3.1 97 0.2 W 6 7 3 4 - - 0.0
01/11:00pm 3.6 1.4 3.3 98 0.1 W 4 6 2 3 - - 0.0
01/10:30pm 3.5 1.3 3.1 97 0.2 W 4 6 2 3 - - 0.0
01/10:00pm 3.5 0.9 3.2 98 0.1 W 6 9 3 5 - - 0.0
01/09:30pm 3.6 0.8 3.2 97 0.2 W 7 13 4 7 - - 0.0
01/09:00pm 3.7 0.1 2.7 93 0.4 W 11 17 6 9 - - 0.0
01/08:30pm 3.9 0.9 1.8 86 0.9 NW 7 11 4 6 - - 0.0

Other Formats:

Comma delimited format used in spreadsheet applications
http://www.bom.gov.au/fwo/IDV60801/IDV60801.94878.axf

JavaScript Object Notation format (JSON) in row-major order
http://www.bom.gov.au/fwo/IDV60801/IDV60801.94878.json